Time;durP1;ratioP1;P1;durP2;ratioP2;P2;SDS_P1;SDS_P2;PMS_P1;PMS_P2;Temp;Humidity;BMP_temperature;BMP_pressure;BME280_temperature;BME280_humidity;BME280_pressure;Samples;Min_cycle;Max_cycle;Signal;HPM_P1;HPM_P2
2021/10/03 00:02:28;;;;;;;;;;;17.40;79.90;;;;;;4987203;28;95684;-48
2021/10/03 00:05:01;;;;;;;;;;;17.40;80.00;;;;;;4990917;28;95953;-48
2021/10/03 00:07:32;;;;;;;;;;;17.40;80.00;;;;;;4992132;28;96518;-48
2021/10/03 00:10:03;;;;;;;;;;;17.40;80.00;;;;;;5016254;27;97839;-51
2021/10/03 00:12:34;;;;;;;;;;;17.40;79.90;;;;;;4983522;28;95869;-48
2021/10/03 00:15:08;;;;;;;;;;;17.50;79.90;;;;;;4989843;28;95462;-48
2021/10/03 00:17:40;;;;;;;;;;;17.50;79.90;;;;;;4992265;28;96069;-50
2021/10/03 00:20:11;;;;;;;;;;;17.50;79.90;;;;;;4991705;28;96100;-48
2021/10/03 00:22:41;;;;;;;;;;;17.50;79.80;;;;;;4991724;28;95775;-48
2021/10/03 00:25:13;;;;;;;;;;;17.50;79.90;;;;;;4993441;28;95335;-60
2021/10/03 00:27:44;;;;;;;;;;;17.50;79.80;;;;;;4993179;28;96536;-47
2021/10/03 00:30:16;;;;;;;;;;;17.50;79.80;;;;;;4989424;28;95633;-51
2021/10/03 00:32:46;;;;;;;;;;;17.60;79.80;;;;;;4992153;28;95382;-55
2021/10/03 00:35:16;;;;;;;;;;;17.60;79.80;;;;;;4992974;28;95743;-49
2021/10/03 00:37:45;;;;;;;;;;;17.60;79.80;;;;;;4991960;28;97569;-49
2021/10/03 00:40:15;;;;;;;;;;;17.60;79.90;;;;;;4992234;28;95974;-48
2021/10/03 00:42:47;;;;;;;;;;;17.60;79.90;;;;;;4992863;28;95894;-51
2021/10/03 00:45:18;;;;;;;;;;;17.70;80.00;;;;;;4988822;28;95670;-49
2021/10/03 00:47:49;;;;;;;;;;;17.70;79.90;;;;;;4992909;28;95831;-56
2021/10/03 00:50:19;;;;;;;;;;;17.70;80.00;;;;;;4991590;28;95833;-61
2021/10/03 00:52:50;;;;;;;;;;;17.70;79.90;;;;;;4991516;28;97135;-60
2021/10/03 00:55:21;;;;;;;;;;;17.80;80.00;;;;;;4990605;28;95750;-61
2021/10/03 00:57:53;;;;;;;;;;;17.80;80.00;;;;;;4991977;28;95833;-63
2021/10/03 01:00:27;;;;;;;;;;;17.80;80.10;;;;;;4986319;28;95701;-60
2021/10/03 01:02:58;;;;;;;;;;;17.90;72.20;;;;;;4991383;28;97961;-61
2021/10/03 01:05:29;;;;;;;;;;;17.90;80.00;;;;;;4992714;28;95603;-62
2021/10/03 01:08:00;;;;;;;;;;;17.90;80.00;;;;;;5009026;28;95891;-61
2021/10/03 01:10:32;;;;;;;;;;;17.90;80.00;;;;;;4981602;28;95936;-61
2021/10/03 01:13:09;;;;;;;;;;;18.00;80.00;;;;;;4979009;28;95866;-60
2021/10/03 01:15:44;;;;;;;;;;;18.00;80.30;;;;;;4973047;28;95545;-62
2021/10/03 01:18:16;;;;;;;;;;;18.00;80.20;;;;;;4980622;28;96007;-57
2021/10/03 01:20:48;;;;;;;;;;;18.10;80.40;;;;;;4980465;28;95309;-49
2021/10/03 01:23:18;;;;;;;;;;;18.10;80.30;;;;;;4979195;28;96383;-57
2021/10/03 01:25:48;;;;;;;;;;;18.10;80.30;;;;;;4984939;28;95763;-59
2021/10/03 01:28:18;;;;;;;;;;;18.20;80.30;;;;;;4973322;28;96751;-61
2021/10/03 01:30:52;;;;;;;;;;;18.10;80.30;;;;;;4980077;28;95464;-62
2021/10/03 01:33:23;;;;;;;;;;;18.20;80.40;;;;;;4981426;28;95264;-49
2021/10/03 01:35:53;;;;;;;;;;;18.20;80.20;;;;;;4991063;28;96005;-61
2021/10/03 01:38:23;;;;;;;;;;;18.20;80.20;;;;;;4987850;28;96312;-61
2021/10/03 01:40:53;;;;;;;;;;;18.30;80.20;;;;;;4990287;28;97404;-62
2021/10/03 01:43:23;;;;;;;;;;;18.30;80.20;;;;;;4991559;28;95655;-61
2021/10/03 01:45:52;;;;;;;;;;;18.30;80.20;;;;;;4985185;28;97477;-46
2021/10/03 01:48:43;;;;;;;;;;;18.30;80.20;;;;;;4989420;28;95717;-48
2021/10/03 01:51:15;;;;;;;;;;;18.30;80.10;;;;;;4989930;28;95478;-48
2021/10/03 01:53:48;;;;;;;;;;;18.30;80.10;;;;;;4991532;28;95668;-48
2021/10/03 01:56:22;;;;;;;;;;;18.30;80.00;;;;;;4991692;28;95803;-48
2021/10/03 01:58:58;;;;;;;;;;;18.30;80.00;;;;;;4990742;28;95917;-47
2021/10/03 02:01:31;;;;;;;;;;;18.40;79.90;;;;;;4966687;28;96211;-49
2021/10/03 02:04:07;;;;;;;;;;;18.40;80.00;;;;;;4989021;28;95931;-47
2021/10/03 02:06:46;;;;;;;;;;;18.40;80.10;;;;;;4989691;28;95555;-62
2021/10/03 02:09:19;;;;;;;;;;;18.50;80.20;;;;;;4988975;28;96266;-48
2021/10/03 02:11:52;;;;;;;;;;;18.50;80.20;;;;;;4982516;28;100736;-62
2021/10/03 02:14:30;;;;;;;;;;;18.50;80.20;;;;;;4988651;28;96009;-48
2021/10/03 02:17:05;;;;;;;;;;;18.50;80.10;;;;;;4983733;28;96201;-49
2021/10/03 02:19:38;;;;;;;;;;;18.50;80.00;;;;;;4988336;28;96692;-62
2021/10/03 02:22:09;;;;;;;;;;;18.60;80.10;;;;;;4989177;28;97680;-48
2021/10/03 02:24:39;;;;;;;;;;;18.60;80.10;;;;;;4991536;28;95343;-47
2021/10/03 02:27:10;;;;;;;;;;;18.60;80.00;;;;;;4991635;28;95725;-47
2021/10/03 02:29:41;;;;;;;;;;;18.60;80.00;;;;;;4987886;28;95887;-50
2021/10/03 02:32:11;;;;;;;;;;;18.70;80.00;;;;;;4985716;28;95821;-49
2021/10/03 02:34:41;;;;;;;;;;;18.70;80.00;;;;;;4989361;28;95249;-48
2021/10/03 02:37:10;;;;;;;;;;;18.70;80.00;;;;;;4988738;28;96221;-47
2021/10/03 02:39:41;;;;;;;;;;;18.70;79.90;;;;;;4990799;28;95742;-47
2021/10/03 02:42:12;;;;;;;;;;;18.70;79.90;;;;;;4990940;28;95844;-47
2021/10/03 02:44:41;;;;;;;;;;;18.70;79.90;;;;;;4990938;28;95370;-47
2021/10/03 02:47:14;;;;;;;;;;;18.70;79.90;;;;;;4985010;28;95417;-49
2021/10/03 02:49:45;;;;;;;;;;;18.70;79.90;;;;;;4990297;28;95888;-48
2021/10/03 02:52:16;;;;;;;;;;;18.80;79.90;;;;;;4985466;28;95913;-48
2021/10/03 02:54:47;;;;;;;;;;;18.80;79.80;;;;;;4988256;28;95519;-49
2021/10/03 02:57:17;;;;;;;;;;;18.90;79.80;;;;;;4990699;28;96068;-48
2021/10/03 02:59:48;;;;;;;;;;;18.90;79.70;;;;;;4989947;28;95908;-48
2021/10/03 03:02:19;;;;;;;;;;;19.00;79.70;;;;;;4985262;28;95777;-49
2021/10/03 03:04:49;;;;;;;;;;;19.00;79.60;;;;;;4990147;28;95667;-51
2021/10/03 03:07:21;;;;;;;;;;;19.10;79.70;;;;;;4991034;28;95644;-48
2021/10/03 03:09:51;;;;;;;;;;;19.10;79.60;;;;;;4982672;28;96017;-50
2021/10/03 03:12:21;;;;;;;;;;;19.10;79.60;;;;;;4982512;28;96782;-49
2021/10/03 03:14:52;;;;;;;;;;;19.20;79.60;;;;;;5021676;27;95929;-49
2021/10/03 03:17:23;;;;;;;;;;;19.20;79.50;;;;;;4985618;28;95414;-49
2021/10/03 03:19:53;;;;;;;;;;;19.20;79.40;;;;;;4990490;28;96466;-48
2021/10/03 03:22:22;;;;;;;;;;;19.30;79.40;;;;;;5001434;28;96051;-50
2021/10/03 03:24:52;;;;;;;;;;;19.30;79.30;;;;;;4980096;28;95701;-51
2021/10/03 03:27:21;;;;;;;;;;;19.40;71.70;;;;;;4987498;28;97234;-49
2021/10/03 03:29:50;;;;;;;;;;;19.40;79.30;;;;;;4982614;28;96254;-49
2021/10/03 03:32:20;;;;;;;;;;;19.40;79.20;;;;;;4973570;28;96159;-49
2021/10/03 03:34:49;;;;;;;;;;;19.50;79.10;;;;;;4979241;28;95515;-50
2021/10/03 03:37:19;;;;;;;;;;;19.50;79.10;;;;;;4986482;28;95668;-49
2021/10/03 03:39:49;;;;;;;;;;;19.60;79.10;;;;;;4977178;28;95639;-49
2021/10/03 03:42:20;;;;;;;;;;;19.60;79.00;;;;;;4982335;28;95874;-51
2021/10/03 03:44:49;;;;;;;;;;;19.60;78.90;;;;;;4986084;28;95505;-51
2021/10/03 03:47:18;;;;;;;;;;;19.60;78.90;;;;;;4978129;28;95924;-49
2021/10/03 03:49:51;;;;;;;;;;;19.70;78.90;;;;;;4976195;28;95836;-53
2021/10/03 03:52:21;;;;;;;;;;;19.70;78.90;;;;;;4980270;28;95823;-49
2021/10/03 03:54:51;;;;;;;;;;;19.70;78.80;;;;;;4978597;28;95578;-48
2021/10/03 03:57:22;;;;;;;;;;;19.80;79.40;;;;;;4989071;28;96021;-52
2021/10/03 03:59:53;;;;;;;;;;;19.80;78.70;;;;;;4986776;28;95864;-49
2021/10/03 04:02:24;;;;;;;;;;;19.80;78.70;;;;;;4983507;28;95765;-49
2021/10/03 04:04:54;;;;;;;;;;;19.90;78.70;;;;;;4990246;28;95929;-60
2021/10/03 04:07:25;;;;;;;;;;;19.90;78.60;;;;;;4989899;28;95485;-48
2021/10/03 04:09:56;;;;;;;;;;;19.90;78.70;;;;;;4986835;28;96005;-49
2021/10/03 04:12:27;;;;;;;;;;;20.00;78.60;;;;;;4979104;28;95538;-50
2021/10/03 04:14:58;;;;;;;;;;;20.00;78.50;;;;;;4981656;28;96053;-48
2021/10/03 04:17:29;;;;;;;;;;;20.00;78.40;;;;;;4980930;28;95443;-48
2021/10/03 04:20:00;;;;;;;;;;;20.10;78.50;;;;;;4987723;28;95889;-48
2021/10/03 04:22:30;;;;;;;;;;;20.10;78.40;;;;;;4987302;28;95464;-50
2021/10/03 04:25:00;;;;;;;;;;;20.10;78.40;;;;;;4986255;28;95949;-50
2021/10/03 04:27:31;;;;;;;;;;;20.20;70.70;;;;;;4989474;28;95696;-48
2021/10/03 04:30:00;;;;;;;;;;;20.10;78.20;;;;;;4982523;28;95857;-48
2021/10/03 04:32:30;;;;;;;;;;;20.10;78.10;;;;;;4986426;28;95524;-49
2021/10/03 04:34:59;;;;;;;;;;;20.20;78.10;;;;;;4981351;28;95316;-48
2021/10/03 04:37:28;;;;;;;;;;;20.20;78.10;;;;;;4984115;28;96589;-48
2021/10/03 04:39:58;;;;;;;;;;;20.20;78.10;;;;;;5017508;27;96240;-49
2021/10/03 04:42:28;;;;;;;;;;;20.20;78.00;;;;;;4979395;28;95506;-48
2021/10/03 04:44:58;;;;;;;;;;;20.20;78.00;;;;;;4993406;28;95432;-49
2021/10/03 04:47:28;;;;;;;;;;;20.30;78.00;;;;;;4992054;28;97403;-50
2021/10/03 04:49:59;;;;;;;;;;;20.30;77.90;;;;;;4985501;28;95960;-50
2021/10/03 04:52:30;;;;;;;;;;;20.30;77.80;;;;;;4984409;28;96151;-48
2021/10/03 04:55:03;;;;;;;;;;;20.30;77.80;;;;;;4982209;28;95673;-48
2021/10/03 04:57:33;;;;;;;;;;;20.30;73.80;;;;;;4981523;28;95805;-51
2021/10/03 05:00:04;;;;;;;;;;;20.30;77.90;;;;;;4979763;28;96930;-49
2021/10/03 05:02:35;;;;;;;;;;;20.40;77.80;;;;;;4978454;28;95869;-51
2021/10/03 05:05:06;;;;;;;;;;;20.30;77.80;;;;;;4988368;28;95983;-49
2021/10/03 05:07:37;;;;;;;;;;;20.30;77.70;;;;;;4985498;28;95770;-48
2021/10/03 05:10:07;;;;;;;;;;;20.40;77.70;;;;;;4987194;28;96329;-48
2021/10/03 05:12:38;;;;;;;;;;;20.50;71.20;;;;;;5014039;27;98093;-49
2021/10/03 05:15:09;;;;;;;;;;;20.40;77.70;;;;;;4989954;28;95815;-48
2021/10/03 05:17:40;;;;;;;;;;;20.50;77.70;;;;;;4992540;28;96773;-62
2021/10/03 05:20:11;;;;;;;;;;;20.50;77.60;;;;;;4991731;28;95910;-48
2021/10/03 05:22:41;;;;;;;;;;;20.50;77.60;;;;;;4978425;28;96412;-65
2021/10/03 05:25:12;;;;;;;;;;;20.50;77.50;;;;;;4982566;28;95350;-50
2021/10/03 05:27:44;;;;;;;;;;;20.50;77.60;;;;;;4977875;28;96178;-50
2021/10/03 05:30:13;;;;;;;;;;;20.50;77.50;;;;;;4974114;28;96479;-53
2021/10/03 05:32:43;;;;;;;;;;;20.50;77.50;;;;;;4985478;28;96005;-49
2021/10/03 05:35:12;;;;;;;;;;;20.60;77.50;;;;;;4976664;28;95950;-50
2021/10/03 05:37:41;;;;;;;;;;;20.60;77.40;;;;;;4979662;28;95779;-51
2021/10/03 05:40:12;;;;;;;;;;;20.60;77.30;;;;;;4982715;28;95781;-50
2021/10/03 05:42:42;;;;;;;;;;;20.60;77.20;;;;;;4984613;28;96390;-54
2021/10/03 05:45:12;;;;;;;;;;;20.60;77.20;;;;;;4988953;28;96558;-51
2021/10/03 05:47:42;;;;;;;;;;;20.60;77.10;;;;;;4983451;28;96173;-53
2021/10/03 05:50:14;;;;;;;;;;;20.70;77.20;;;;;;4983915;28;97331;-51
2021/10/03 05:52:44;;;;;;;;;;;20.70;77.10;;;;;;4988719;28;96034;-51
2021/10/03 05:55:14;;;;;;;;;;;20.60;77.00;;;;;;4987335;28;95931;-51
2021/10/03 05:57:45;;;;;;;;;;;20.70;76.90;;;;;;4983623;28;95747;-50
2021/10/03 06:00:15;;;;;;;;;;;20.70;76.90;;;;;;4978124;28;97578;-51
2021/10/03 06:02:46;;;;;;;;;;;20.70;76.80;;;;;;4976187;28;95279;-51
2021/10/03 06:05:16;;;;;;;;;;;20.70;76.70;;;;;;4978852;28;95811;-52
2021/10/03 06:07:47;;;;;;;;;;;20.70;76.60;;;;;;4977499;28;96056;-51
2021/10/03 06:10:17;;;;;;;;;;;20.70;76.50;;;;;;4977451;28;95847;-50
2021/10/03 06:12:47;;;;;;;;;;;20.80;76.50;;;;;;4981714;28;95696;-50
2021/10/03 06:15:18;;;;;;;;;;;20.80;76.40;;;;;;4981986;28;95932;-51
2021/10/03 06:17:48;;;;;;;;;;;20.80;76.40;;;;;;4960055;28;95415;-52
2021/10/03 06:20:18;;;;;;;;;;;20.80;76.30;;;;;;4989731;28;96037;-63
2021/10/03 06:22:47;;;;;;;;;;;20.80;76.20;;;;;;4957826;28;95846;-53
2021/10/03 06:25:18;;;;;;;;;;;20.80;76.20;;;;;;4957864;28;95427;-53
2021/10/03 06:27:48;;;;;;;;;;;20.80;76.10;;;;;;4962836;28;95604;-50
2021/10/03 06:30:17;;;;;;;;;;;20.80;76.20;;;;;;4959443;28;95937;-54
2021/10/03 06:32:47;;;;;;;;;;;20.80;76.10;;;;;;4958146;28;95922;-51
2021/10/03 06:35:16;;;;;;;;;;;20.80;76.10;;;;;;4957144;28;95891;-49
2021/10/03 06:37:47;;;;;;;;;;;20.80;76.10;;;;;;4961422;28;95629;-53
2021/10/03 06:40:18;;;;;;;;;;;20.80;76.00;;;;;;4997006;28;96078;-49
2021/10/03 06:42:48;;;;;;;;;;;20.80;76.00;;;;;;4968099;28;95580;-49
2021/10/03 06:45:18;;;;;;;;;;;20.80;76.00;;;;;;4963074;28;95695;-51
2021/10/03 06:47:47;;;;;;;;;;;20.80;76.10;;;;;;4965792;28;95747;-49
2021/10/03 06:50:17;;;;;;;;;;;20.80;76.20;;;;;;4957468;28;96328;-48
2021/10/03 06:52:49;;;;;;;;;;;20.80;76.10;;;;;;4956478;28;96240;-52
2021/10/03 06:55:21;;;;;;;;;;;20.80;76.00;;;;;;4955903;28;96819;-50
2021/10/03 06:57:52;;;;;;;;;;;20.80;75.90;;;;;;4951796;28;95498;-52
2021/10/03 07:00:24;;;;;;;;;;;20.80;76.00;;;;;;4951641;28;96120;-51
2021/10/03 07:02:54;;;;;;;;;;;20.80;76.00;;;;;;4958179;28;95785;-54
2021/10/03 07:05:25;;;;;;;;;;;20.80;68.50;;;;;;4956474;28;95599;-53
2021/10/03 07:07:55;;;;;;;;;;;20.80;75.90;;;;;;4955257;28;95893;-54
2021/10/03 07:10:25;;;;;;;;;;;20.80;75.90;;;;;;4951204;28;96289;-54
2021/10/03 07:12:56;;;;;;;;;;;20.80;75.90;;;;;;4954756;28;101161;-53
2021/10/03 07:15:27;;;;;;;;;;;20.80;75.90;;;;;;4951599;28;95699;-50
2021/10/03 07:18:02;;;;;;;;;;;20.80;68.40;;;;;;4974745;28;95745;-54
2021/10/03 07:20:31;;;;;;;;;;;20.70;75.90;;;;;;4981225;28;95910;-52
2021/10/03 07:23:01;;;;;;;;;;;20.80;76.00;;;;;;4984772;28;95605;-47
2021/10/03 07:25:32;;;;;;;;;;;20.80;76.00;;;;;;5021347;28;95830;-48
2021/10/03 07:28:01;;;;;;;;;;;20.80;76.20;;;;;;4988940;28;95948;-49
2021/10/03 07:30:30;;;;;;;;;;;20.70;76.10;;;;;;4984455;28;97943;-49
2021/10/03 07:33:02;;;;;;;;;;;20.70;68.70;;;;;;4990255;28;95791;-51
2021/10/03 07:35:32;;;;;;;;;;;20.70;76.30;;;;;;4987251;28;95952;-52
2021/10/03 07:38:03;;;;;;;;;;;20.60;76.30;;;;;;4988560;28;96012;-50
2021/10/03 07:40:33;;;;;;;;;;;20.60;76.30;;;;;;4989541;28;96446;-51
2021/10/03 07:43:03;;;;;;;;;;;20.60;76.40;;;;;;4989466;28;95858;-52
2021/10/03 07:45:32;;;;;;;;;;;20.60;76.40;;;;;;4981454;28;99544;-49
2021/10/03 07:48:03;;;;;;;;;;;20.60;68.80;;;;;;4990489;28;95991;-47
2021/10/03 07:50:34;;;;;;;;;;;20.50;76.30;;;;;;4989398;28;96524;-49
2021/10/03 07:53:05;;;;;;;;;;;20.50;76.30;;;;;;4987984;28;95741;-48
2021/10/03 07:55:36;;;;;;;;;;;20.50;76.50;;;;;;4988214;28;95496;-48
2021/10/03 07:58:07;;;;;;;;;;;20.40;76.60;;;;;;4990572;28;95535;-48
2021/10/03 08:00:38;;;;;;;;;;;20.50;76.60;;;;;;4984583;28;97735;-48
2021/10/03 08:03:10;;;;;;;;;;;20.40;76.60;;;;;;5019160;28;97390;-49
2021/10/03 08:05:40;;;;;;;;;;;20.40;76.70;;;;;;4989808;28;95718;-49
2021/10/03 08:08:11;;;;;;;;;;;20.30;76.80;;;;;;4988479;28;95595;-61
2021/10/03 08:10:43;;;;;;;;;;;20.30;76.90;;;;;;4984150;28;96094;-52
2021/10/03 08:13:14;;;;;;;;;;;20.40;77.00;;;;;;4987696;28;96351;-48
2021/10/03 08:15:44;;;;;;;;;;;20.30;77.00;;;;;;4988188;28;95906;-49
2021/10/03 08:18:15;;;;;;;;;;;20.30;77.00;;;;;;4993751;28;95843;-50
2021/10/03 08:20:47;;;;;;;;;;;20.30;77.30;;;;;;4992427;28;95826;-48
2021/10/03 08:23:19;;;;;;;;;;;20.30;77.10;;;;;;4988274;28;95568;-48
2021/10/03 08:25:50;;;;;;;;;;;20.30;77.50;;;;;;4992424;28;95783;-48
2021/10/03 08:28:20;;;;;;;;;;;20.30;77.60;;;;;;4991894;28;95748;-52
2021/10/03 08:30:50;;;;;;;;;;;20.20;77.70;;;;;;4986308;28;95926;-50
2021/10/03 08:33:19;;;;;;;;;;;20.20;77.70;;;;;;4986605;28;96048;-51
2021/10/03 08:35:51;;;;;;;;;;;20.20;78.00;;;;;;4982910;28;95844;-49
2021/10/03 08:38:22;;;;;;;;;;;20.20;77.90;;;;;;4979922;28;95338;-48
2021/10/03 08:40:53;;;;;;;;;;;20.20;78.00;;;;;;4979915;28;96061;-50
2021/10/03 08:43:23;;;;;;;;;;;20.20;78.10;;;;;;4982695;28;95899;-49
2021/10/03 08:46:08;;;;;;;;;;;20.10;78.10;;;;;;4976612;28;96391;-49
2021/10/03 08:48:38;;;;;;;;;;;20.10;78.00;;;;;;4980920;28;95639;-52
2021/10/03 08:51:09;;;;;;;;;;;20.10;78.10;;;;;;4977239;28;96618;-49
2021/10/03 08:53:40;;;;;;;;;;;20.10;78.20;;;;;;5014045;28;97038;-48
2021/10/03 08:56:11;;;;;;;;;;;20.10;78.10;;;;;;4978881;28;95888;-49
2021/10/03 08:58:42;;;;;;;;;;;20.00;78.00;;;;;;4983236;28;95767;-49
2021/10/03 09:01:13;;;;;;;;;;;20.00;78.10;;;;;;4979712;28;95962;-49
2021/10/03 09:03:45;;;;;;;;;;;20.00;78.20;;;;;;4982052;28;95924;-48
2021/10/03 09:06:16;;;;;;;;;;;20.00;78.20;;;;;;5009236;28;95827;-50
2021/10/03 09:08:56;;;;;;;;;;;20.00;78.20;;;;;;4985493;28;95720;-49
2021/10/03 09:11:26;;;;;;;;;;;19.90;78.00;;;;;;4976779;28;95958;-50
2021/10/03 09:13:56;;;;;;;;;;;19.90;78.20;;;;;;4982032;28;95841;-50
2021/10/03 09:16:33;;;;;;;;;;;19.90;78.10;;;;;;4979944;28;95250;-49
2021/10/03 09:19:10;;;;;;;;;;;19.90;78.20;;;;;;4989099;28;96151;-49
2021/10/03 09:21:42;;;;;;;;;;;19.90;78.20;;;;;;4987905;28;95783;-50
2021/10/03 09:24:17;;;;;;;;;;;19.90;78.90;;;;;;4990491;28;96788;-49
2021/10/03 09:27:06;;;;;;;;;;;19.80;78.00;;;;;;4992197;28;95672;-49
2021/10/03 09:29:36;;;;;;;;;;;19.80;77.70;;;;;;4991370;28;95761;-49
2021/10/03 09:32:11;;;;;;;;;;;19.80;77.50;;;;;;4987355;28;95794;-50
2021/10/03 09:34:49;;;;;;;;;;;19.80;77.70;;;;;;4986302;28;95735;-50
2021/10/03 09:37:22;;;;;;;;;;;19.80;77.50;;;;;;4977797;28;95773;-63
2021/10/03 09:40:19;;;;;;;;;;;19.80;77.40;;;;;;4986593;28;95244;-53
2021/10/03 09:42:55;;;;;;;;;;;19.70;77.40;;;;;;4990769;28;95946;-63
2021/10/03 09:45:24;;;;;;;;;;;19.70;77.30;;;;;;4986003;28;95812;-64
2021/10/03 09:47:58;;;;;;;;;;;19.70;77.30;;;;;;4974192;28;95709;-51
2021/10/03 09:50:28;;;;;;;;;;;19.70;77.10;;;;;;4987841;28;96998;-54
2021/10/03 09:52:59;;;;;;;;;;;19.60;77.00;;;;;;4984678;28;95740;-63
2021/10/03 09:55:31;;;;;;;;;;;19.60;77.90;;;;;;4991432;28;95729;-50
2021/10/03 09:58:02;;;;;;;;;;;19.70;70.00;;;;;;4988259;28;95617;-53
2021/10/03 10:00:34;;;;;;;;;;;19.60;76.50;;;;;;4988118;28;97739;-64
2021/10/03 10:03:05;;;;;;;;;;;19.60;77.80;;;;;;4989686;28;96457;-63
2021/10/03 10:05:35;;;;;;;;;;;19.60;77.80;;;;;;5019372;28;95871;-63
2021/10/03 10:08:06;;;;;;;;;;;19.60;77.90;;;;;;4989355;28;95957;-62
2021/10/03 10:10:37;;;;;;;;;;;19.50;77.80;;;;;;4980281;28;95963;-53
2021/10/03 10:13:12;;;;;;;;;;;19.50;77.70;;;;;;4976249;28;95947;-63
2021/10/03 10:15:43;;;;;;;;;;;19.50;78.10;;;;;;4986408;28;95663;-62
2021/10/03 10:18:24;;;;;;;;;;;19.50;78.80;;;;;;4991899;28;95696;-49
2021/10/03 10:20:54;;;;;;;;;;;19.50;78.20;;;;;;4991745;28;96115;-61
2021/10/03 10:23:31;;;;;;;;;;;19.50;78.20;;;;;;4989741;28;95612;-52
2021/10/03 10:26:01;;;;;;;;;;;19.50;78.20;;;;;;4989424;28;97048;-57
2021/10/03 10:28:37;;;;;;;;;;;19.50;78.20;;;;;;4992097;28;95255;-48
2021/10/03 10:31:12;;;;;;;;;;;19.40;78.20;;;;;;4978601;28;97951;-49
2021/10/03 10:33:53;;;;;;;;;;;19.40;78.20;;;;;;4982195;28;96027;-62
2021/10/03 10:36:24;;;;;;;;;;;19.40;78.20;;;;;;4981591;28;95910;-62
2021/10/03 10:39:08;;;;;;;;;;;19.30;78.10;;;;;;4979017;28;95664;-62
2021/10/03 10:41:43;;;;;;;;;;;19.30;78.10;;;;;;4987935;28;95833;-53
2021/10/03 10:44:28;;;;;;;;;;;19.30;78.10;;;;;;4984981;28;95864;-49
2021/10/03 10:47:08;;;;;;;;;;;19.30;78.10;;;;;;4976222;28;95739;-62
2021/10/03 10:49:45;;;;;;;;;;;19.30;78.20;;;;;;4981848;28;95718;-63
2021/10/03 10:52:21;;;;;;;;;;;19.30;78.30;;;;;;4981339;28;95660;-62
2021/10/03 10:55:05;;;;;;;;;;;19.30;78.30;;;;;;4980462;28;95987;-62
2021/10/03 10:57:53;;;;;;;;;;;19.30;78.30;;;;;;4984674;28;96123;-62
2021/10/03 11:00:32;;;;;;;;;;;19.20;78.40;;;;;;4979285;28;95562;-53
2021/10/03 11:03:05;;;;;;;;;;;19.20;78.40;;;;;;4978600;28;96047;-63
2021/10/03 11:05:39;;;;;;;;;;;19.20;78.40;;;;;;4979347;28;95848;-51
2021/10/03 11:08:16;;;;;;;;;;;19.20;78.40;;;;;;4980352;28;95866;-49
2021/10/03 11:11:09;;;;;;;;;;;19.20;78.40;;;;;;4975475;28;95867;-51
2021/10/03 11:13:41;;;;;;;;;;;19.20;78.40;;;;;;4983340;28;95527;-62
2021/10/03 11:16:24;;;;;;;;;;;19.20;78.40;;;;;;4984867;28;96239;-62
2021/10/03 11:18:56;;;;;;;;;;;19.10;78.40;;;;;;4989745;28;96576;-50
2021/10/03 11:21:31;;;;;;;;;;;19.10;78.50;;;;;;4990909;28;95269;-50
2021/10/03 11:24:02;;;;;;;;;;;19.10;78.40;;;;;;4990304;28;95605;-62
2021/10/03 11:26:45;;;;;;;;;;;19.10;78.40;;;;;;4990266;28;95859;-63
2021/10/03 11:29:15;;;;;;;;;;;19.10;78.40;;;;;;4987914;28;96068;-63
2021/10/03 11:31:47;;;;;;;;;;;19.10;78.40;;;;;;4984653;28;97921;-49
2021/10/03 11:34:37;;;;;;;;;;;19.10;71.20;;;;;;4990249;28;95642;-63
2021/10/03 11:37:09;;;;;;;;;;;19.00;78.50;;;;;;4985177;28;95828;-52
2021/10/03 11:39:45;;;;;;;;;;;19.00;78.50;;;;;;4988591;28;95706;-63
2021/10/03 11:42:18;;;;;;;;;;;19.00;78.50;;;;;;4988913;28;95849;-53
2021/10/03 11:44:47;;;;;;;;;;;19.00;78.50;;;;;;4990149;28;97486;-64
2021/10/03 11:47:17;;;;;;;;;;;19.00;71.20;;;;;;4983727;28;95818;-64
2021/10/03 11:49:47;;;;;;;;;;;19.00;78.50;;;;;;4987888;28;96135;-50
2021/10/03 11:52:30;;;;;;;;;;;18.90;78.40;;;;;;4989036;28;95528;-48
2021/10/03 11:55:06;;;;;;;;;;;18.90;78.50;;;;;;4985843;28;95985;-64
2021/10/03 11:57:39;;;;;;;;;;;18.90;78.50;;;;;;4989655;28;95874;-63
2021/10/03 12:00:11;;;;;;;;;;;18.90;78.50;;;;;;4986690;28;95766;-52
2021/10/03 12:02:52;;;;;;;;;;;18.90;78.50;;;;;;4978988;28;97811;-62
2021/10/03 12:05:27;;;;;;;;;;;18.90;78.50;;;;;;4985026;28;95758;-62
2021/10/03 12:08:02;;;;;;;;;;;18.90;78.50;;;;;;4977611;28;95998;-62
2021/10/03 12:10:47;;;;;;;;;;;18.90;78.50;;;;;;4981532;28;95838;-62
2021/10/03 12:13:18;;;;;;;;;;;18.80;78.50;;;;;;4983394;28;95839;-49
2021/10/03 12:15:57;;;;;;;;;;;18.80;78.50;;;;;;5016529;28;98722;-62
2021/10/03 12:18:30;;;;;;;;;;;18.80;78.50;;;;;;4989937;28;95857;-63
2021/10/03 12:21:06;;;;;;;;;;;18.80;78.60;;;;;;4985671;28;95995;-63
2021/10/03 12:23:40;;;;;;;;;;;18.80;78.60;;;;;;4989282;28;95605;-61
2021/10/03 12:26:14;;;;;;;;;;;18.80;78.50;;;;;;4988806;28;95566;-48
2021/10/03 12:28:53;;;;;;;;;;;18.80;78.60;;;;;;4988592;28;96040;-62
2021/10/03 12:31:43;;;;;;;;;;;18.70;78.50;;;;;;4984650;28;95794;-63
2021/10/03 12:34:16;;;;;;;;;;;18.80;78.60;;;;;;4987468;28;95706;-62
2021/10/03 12:37:08;;;;;;;;;;;18.70;71.10;;;;;;4988328;28;96209;-62
2021/10/03 12:39:44;;;;;;;;;;;18.70;78.50;;;;;;4985626;28;96038;-62
2021/10/03 12:42:16;;;;;;;;;;;18.70;78.60;;;;;;4982498;28;95257;-63
2021/10/03 12:44:46;;;;;;;;;;;18.70;78.60;;;;;;4979382;28;95541;-63
2021/10/03 12:47:16;;;;;;;;;;;18.70;78.50;;;;;;4982251;28;95585;-50
2021/10/03 12:49:45;;;;;;;;;;;18.70;78.60;;;;;;4984133;28;96387;-51
2021/10/03 12:52:16;;;;;;;;;;;18.70;78.70;;;;;;5007049;28;96515;-50
2021/10/03 12:54:49;;;;;;;;;;;18.80;78.90;;;;;;4983684;28;98636;-65
2021/10/03 12:57:19;;;;;;;;;;;18.70;78.90;;;;;;4990146;28;95472;-48
2021/10/03 12:59:49;;;;;;;;;;;18.80;79.10;;;;;;4993190;28;96461;-47
2021/10/03 13:02:20;;;;;;;;;;;18.80;79.00;;;;;;4987408;28;95709;-63
2021/10/03 13:05:07;;;;;;;;;;;18.80;79.00;;;;;;4989447;28;95776;-48
2021/10/03 13:07:38;;;;;;;;;;;18.80;78.80;;;;;;5017059;28;97075;-51
2021/10/03 13:10:10;;;;;;;;;;;18.80;78.80;;;;;;4988654;28;96207;-64
2021/10/03 13:12:43;;;;;;;;;;;18.80;78.80;;;;;;4985792;28;97669;-48
2021/10/03 13:15:14;;;;;;;;;;;18.80;78.80;;;;;;5020204;28;96282;-53
2021/10/03 13:17:47;;;;;;;;;;;18.80;78.90;;;;;;4980098;28;95252;-50
2021/10/03 13:20:18;;;;;;;;;;;18.80;78.90;;;;;;5010385;28;96365;-51
2021/10/03 13:22:48;;;;;;;;;;;18.80;78.80;;;;;;5014592;28;96080;-49
2021/10/03 13:25:18;;;;;;;;;;;18.80;78.80;;;;;;4981622;28;95611;-49
2021/10/03 13:27:47;;;;;;;;;;;18.80;78.50;;;;;;4999729;28;95931;-50
2021/10/03 13:30:17;;;;;;;;;;;18.80;78.50;;;;;;4979227;28;95877;-51
2021/10/03 13:32:47;;;;;;;;;;;18.80;78.50;;;;;;4979235;28;95646;-49
2021/10/03 13:35:17;;;;;;;;;;;18.80;78.40;;;;;;4978403;28;95409;-59
2021/10/03 13:37:47;;;;;;;;;;;18.80;78.40;;;;;;5013781;28;95791;-60
2021/10/03 13:40:21;;;;;;;;;;;18.80;78.30;;;;;;4980776;28;95893;-56
2021/10/03 13:42:52;;;;;;;;;;;18.80;78.30;;;;;;4985078;28;95887;-48
2021/10/03 13:45:21;;;;;;;;;;;18.80;78.40;;;;;;4986535;28;95798;-51
2021/10/03 13:47:50;;;;;;;;;;;18.80;78.60;;;;;;4991906;28;95524;-49
2021/10/03 13:50:19;;;;;;;;;;;18.80;78.70;;;;;;4991650;28;96200;-50
2021/10/03 13:52:51;;;;;;;;;;;18.80;78.80;;;;;;4991315;28;95953;-51
2021/10/03 13:55:23;;;;;;;;;;;18.80;78.80;;;;;;4992139;28;95951;-50
2021/10/03 13:57:55;;;;;;;;;;;18.80;78.70;;;;;;4991895;28;95393;-51
2021/10/03 14:00:26;;;;;;;;;;;18.80;78.60;;;;;;4985602;28;95882;-49
2021/10/03 14:02:56;;;;;;;;;;;18.80;78.50;;;;;;4981775;28;102277;-48
2021/10/03 14:05:26;;;;;;;;;;;18.80;78.70;;;;;;4980938;28;95661;-65
2021/10/03 14:07:57;;;;;;;;;;;18.80;79.00;;;;;;4989998;28;95320;-48
2021/10/03 14:10:28;;;;;;;;;;;18.80;77.20;;;;;;4986092;28;97138;-50
2021/10/03 14:12:58;;;;;;;;;;;18.80;79.00;;;;;;4980368;28;95890;-63
2021/10/03 14:15:29;;;;;;;;;;;18.80;79.10;;;;;;4974757;28;95953;-49
2021/10/03 14:18:02;;;;;;;;;;;18.80;79.00;;;;;;4987036;28;95803;-50
2021/10/03 14:20:34;;;;;;;;;;;18.80;78.90;;;;;;4984182;28;95870;-64
2021/10/03 14:23:08;;;;;;;;;;;18.90;71.60;;;;;;5011895;28;96308;-49
2021/10/03 14:25:39;;;;;;;;;;;18.80;78.80;;;;;;4991388;28;95700;-64
2021/10/03 14:28:08;;;;;;;;;;;18.80;78.80;;;;;;4992156;28;95625;-49
2021/10/03 14:30:38;;;;;;;;;;;18.80;78.70;;;;;;4986197;28;95832;-65
2021/10/03 14:33:08;;;;;;;;;;;18.80;78.70;;;;;;4990709;28;95424;-64
2021/10/03 14:35:37;;;;;;;;;;;18.80;78.80;;;;;;4987841;28;95625;-63
2021/10/03 14:38:08;;;;;;;;;;;18.80;78.80;;;;;;4992080;28;95639;-64
2021/10/03 14:40:39;;;;;;;;;;;18.80;78.80;;;;;;4990872;28;95802;-59
2021/10/03 14:43:10;;;;;;;;;;;18.80;78.80;;;;;;4991544;28;95857;-64
2021/10/03 14:45:39;;;;;;;;;;;18.70;78.70;;;;;;4986319;28;95208;-63